Time;durP1;ratioP1;P1;durP2;ratioP2;P2;SDS_P1;SDS_P2;PMS_P1;PMS_P2;Temp;Humidity;BMP_temperature;BMP_pressure;BME280_temperature;BME280_humidity;BME280_pressure;Samples;Min_cycle;Max_cycle;Signal;HPM_P1;HPM_P2
2022/12/03 00:00:48;;;;;;;10.73;6.90;;;;;;;0.59;45.05;95736.97;5041436;28;20105;-67
2022/12/03 00:03:13;;;;;;;12.15;7.18;;;;;;;0.37;45.35;95732.47;5041455;28;20109;-66
2022/12/03 00:05:39;;;;;;;9.82;6.03;;;;;;;0.08;46.04;95732.78;5040629;28;20148;-67
2022/12/03 00:08:04;;;;;;;11.15;6.28;;;;;;;0.37;45.38;95732.47;5041739;28;20100;-67
2022/12/03 00:10:29;;;;;;;12.35;7.85;;;;;;;0.24;46.19;95729.88;5041590;28;20520;-67
2022/12/03 00:12:55;;;;;;;12.77;7.78;;;;;;;0.27;45.90;95731.47;5039664;28;20399;-66
2022/12/03 00:15:20;;;;;;;10.10;6.57;;;;;;;0.24;46.18;95729.06;5040690;28;20120;-65
2022/12/03 00:17:46;;;;;;;11.23;6.97;;;;;;;0.07;46.05;95725.84;5041719;28;20081;-67
2022/12/03 00:20:19;;;;;;;12.45;7.68;;;;;;;-0.06;46.34;95726.72;5041065;28;20117;-67
2022/12/03 00:22:45;;;;;;;11.73;6.57;;;;;;;-0.08;46.56;95728.63;5037795;28;20609;-67
2022/12/03 00:25:10;;;;;;;10.32;6.43;;;;;;;0.06;46.67;95725.03;5039749;28;20082;-66
2022/12/03 00:27:36;;;;;;;11.65;7.18;;;;;;;0.08;46.66;95725.75;5040598;28;20473;-66
2022/12/03 00:30:01;;;;;;;14.20;8.25;;;;;;;0.01;47.53;95726.31;5040486;28;20074;-65
2022/12/03 00:32:27;;;;;;;11.82;6.30;;;;;;;0.19;46.18;95724.16;5038893;28;20136;-67
2022/12/03 00:34:52;;;;;;;10.15;6.15;;;;;;;0.34;45.64;95725.66;5039096;28;20521;-65
2022/12/03 00:37:17;;;;;;;12.75;7.80;;;;;;;0.36;46.01;95729.94;5039451;28;20089;-67
2022/12/03 00:39:43;;;;;;;13.75;8.07;;;;;;;0.30;46.80;95723.38;5037761;28;20105;-66
2022/12/03 00:42:08;;;;;;;10.82;6.57;;;;;;;0.43;45.70;95720.69;5037625;28;20084;-67
2022/12/03 00:44:34;;;;;;;10.15;6.43;;;;;;;0.40;45.95;95720.91;5039999;28;20104;-67
2022/12/03 00:46:59;;;;;;;10.68;6.43;;;;;;;0.52;45.50;95721.81;5040171;28;20108;-66
2022/12/03 00:49:24;;;;;;;11.25;6.93;;;;;;;0.36;45.77;95722.94;5040989;28;20089;-66
2022/12/03 00:51:50;;;;;;;12.50;7.75;;;;;;;0.12;46.38;95721.16;5039508;28;20105;-66
2022/12/03 00:54:15;;;;;;;12.10;7.22;;;;;;;0.14;46.20;95721.03;5039357;28;20085;-65
2022/12/03 00:56:41;;;;;;;11.32;7.15;;;;;;;0.30;46.08;95716.38;5040806;28;20175;-67
2022/12/03 00:59:06;;;;;;;12.23;7.53;;;;;;;0.47;45.72;95711.66;5039559;28;20135;-67
2022/12/03 01:01:31;;;;;;;12.23;7.05;;;;;;;0.25;45.84;95718.47;5039371;28;20089;-66
2022/12/03 01:03:57;;;;;;;12.10;7.30;;;;;;;0.19;46.43;95713.69;5037497;28;20101;-67
2022/12/03 01:06:22;;;;;;;10.20;6.78;;;;;;;0.18;45.89;95717.25;5036324;28;20082;-66
2022/12/03 01:08:48;;;;;;;12.85;7.82;;;;;;;0.28;47.25;95710.38;5039213;28;20093;-67
2022/12/03 01:13:57;;;;;;;12.68;7.00;;;;;;;0.04;45.78;95716.44;5038054;28;20753;-67
2022/12/03 01:16:22;;;;;;;14.23;8.25;;;;;;;-0.01;46.18;95712.47;5039623;28;20097;-66
2022/12/03 01:18:51;;;;;;;13.13;7.53;;;;;;;0.08;45.81;95714.47;5038700;28;20178;-67
2022/12/03 01:21:16;;;;;;;12.43;8.23;;;;;;;0.10;46.11;95715.16;5039194;28;20077;-66
2022/12/03 01:23:42;;;;;;;12.52;7.20;;;;;;;0.25;45.44;95717.63;5040088;28;20094;-67
2022/12/03 01:26:07;;;;;;;12.98;7.93;;;;;;;0.31;45.46;95722.44;5039888;28;20087;-66
2022/12/03 01:28:32;;;;;;;14.48;7.80;;;;;;;0.10;45.59;95719.59;5040048;28;20093;-67
2022/12/03 01:33:42;;;;;;;12.00;7.85;;;;;;;0.23;45.12;95725.59;5038748;28;20124;-67
2022/12/03 01:36:07;;;;;;;13.23;8.25;;;;;;;0.13;45.29;95733.28;5043335;28;20113;-67
2022/12/03 01:38:33;;;;;;;12.63;7.82;;;;;;;-0.13;46.13;95722.88;5041935;28;20468;-66
2022/12/03 01:40:58;;;;;;;11.25;6.72;;;;;;;0.22;44.87;95734.41;5039254;28;20601;-66
2022/12/03 01:43:24;;;;;;;11.63;7.25;;;;;;;0.21;45.00;95735.38;5042848;28;20105;-68
2022/12/03 01:45:49;;;;;;;9.43;6.13;;;;;;;0.36;44.47;95729.94;5042996;28;20080;-66
2022/12/03 01:48:15;;;;;;;12.20;6.80;;;;;;;0.24;44.32;95727.25;5042130;28;20297;-66
2022/12/03 01:50:40;;;;;;;11.13;6.68;;;;;;;0.21;44.22;95730.13;5042489;28;20556;-66
2022/12/03 01:53:08;;;;;;;10.60;6.38;;;;;;;0.45;44.16;95729.31;5026265;28;20073;-66
2022/12/03 01:55:33;;;;;;;13.48;7.88;;;;;;;0.26;45.31;95732.41;5041556;28;20109;-65
2022/12/03 01:57:59;;;;;;;11.98;7.10;;;;;;;0.32;44.78;95731.97;5042375;28;20081;-67
2022/12/03 02:00:28;;;;;;;11.88;7.13;;;;;;;0.31;44.17;95727.69;5025734;28;20139;-67
2022/12/03 02:02:58;;;;;;;13.73;8.98;;;;;;;0.36;43.77;95722.94;5042903;28;20276;-67
2022/12/03 02:05:28;;;;;;;14.77;9.23;;;;;;;0.37;45.90;95718.53;5049719;28;20359;-66
2022/12/03 02:07:55;;;;;;;11.45;7.28;;;;;;;0.23;44.59;95717.75;5025591;28;20102;-67
2022/12/03 02:10:23;;;;;;;13.25;7.70;;;;;;;0.18;44.18;95722.50;5042946;28;20082;-66
2022/12/03 02:13:06;;;;;;;9.18;6.10;;;;;;;0.33;44.03;95721.38;5042235;28;20181;-67
2022/12/03 02:15:31;;;;;;;8.93;5.78;;;;;;;0.31;43.87;95711.97;5042419;28;20101;-66
2022/12/03 02:17:56;;;;;;;11.32;6.90;;;;;;;0.09;44.25;95708.25;5044038;28;20100;-66
2022/12/03 02:20:22;;;;;;;11.52;7.57;;;;;;;0.27;44.29;95711.34;5042813;28;20183;-65
2022/12/03 02:22:53;;;;;;;12.93;7.88;;;;;;;0.03;44.34;95709.53;5040081;28;20144;-67
2022/12/03 02:25:21;;;;;;;10.23;6.22;;;;;;;0.04;44.27;95703.34;5040950;28;20084;-67
2022/12/03 02:27:46;;;;;;;10.57;7.05;;;;;;;-0.05;46.19;95702.25;5038821;28;20105;-66
2022/12/03 02:30:13;;;;;;;10.55;6.88;;;;;;;0.08;43.93;95701.38;5024907;28;20143;-67
2022/12/03 02:32:38;;;;;;;9.93;6.40;;;;;;;0.14;44.17;95710.56;5042671;28;20593;-66
2022/12/03 02:35:04;;;;;;;14.40;8.93;;;;;;;-0.15;45.09;95700.38;5040087;28;20113;-65
2022/12/03 02:37:32;;;;;;;12.73;7.72;;;;;;;-0.16;45.20;95704.78;5043976;28;20160;-66
2022/12/03 02:40:05;;;;;;;11.75;7.57;;;;;;;-0.22;45.16;95694.75;5043092;28;20117;-66
2022/12/03 02:42:34;;;;;;;11.80;7.05;;;;;;;-0.17;44.52;95692.63;5041124;28;20080;-67
2022/12/03 02:45:20;;;;;;;13.13;8.27;;;;;;;-0.18;44.60;95693.59;5042363;28;20192;-66
2022/12/03 02:48:03;;;;;;;9.60;6.28;;;;;;;-0.12;44.63;95693.16;5040351;28;20636;-67
2022/12/03 02:50:31;;;;;;;9.85;6.07;;;;;;;-0.13;45.59;95696.69;5043014;28;20123;-67
2022/12/03 02:52:57;;;;;;;10.23;6.22;;;;;;;-0.18;44.97;95697.03;5040370;28;20105;-67
2022/12/03 02:55:22;;;;;;;10.68;7.00;;;;;;;-0.01;44.58;95696.78;5042597;28;20105;-66
2022/12/03 02:57:48;;;;;;;10.55;6.72;;;;;;;-0.25;45.26;95695.81;5042802;28;20351;-65
2022/12/03 03:00:14;;;;;;;9.70;6.70;;;;;;;-0.23;44.85;95698.31;5042618;28;20570;-66
2022/12/03 03:02:39;;;;;;;9.52;6.07;;;;;;;-0.33;45.27;95692.91;5023964;28;20434;-67
2022/12/03 03:05:05;;;;;;;15.00;7.70;;;;;;;-0.16;44.77;95688.25;5041428;28;20077;-67
2022/12/03 03:07:31;;;;;;;12.13;6.68;;;;;;;-0.05;44.46;95689.16;5024114;28;20578;-67
2022/12/03 03:09:57;;;;;;;16.00;8.75;;;;;;;-0.16;44.84;95685.63;5041576;28;20134;-66
2022/12/03 03:12:22;;;;;;;12.65;8.25;;;;;;;-0.22;45.06;95689.50;5023291;28;20120;-65
2022/12/03 03:14:47;;;;;;;11.35;7.50;;;;;;;-0.29;44.70;95686.50;5041438;28;20077;-67
2022/12/03 03:17:13;;;;;;;14.60;9.15;;;;;;;-0.36;46.37;95690.47;5040625;28;20085;-67
2022/12/03 03:19:38;;;;;;;10.95;7.15;;;;;;;-0.21;44.87;95694.63;5041926;28;20121;-67
2022/12/03 03:22:04;;;;;;;15.02;9.20;;;;;;;-0.03;46.13;95690.81;5040732;28;20158;-67
2022/12/03 03:24:29;;;;;;;20.00;11.57;;;;;;;-0.47;46.18;95688.63;5041589;28;20097;-66
2022/12/03 03:26:55;;;;;;;11.02;6.88;;;;;;;-0.31;45.33;95691.00;5037927;28;20109;-67
2022/12/03 03:29:20;;;;;;;9.43;5.95;;;;;;;-0.19;44.46;95679.66;5040348;28;20076;-66
2022/12/03 03:31:45;;;;;;;18.20;11.90;;;;;;;-0.23;44.62;95687.84;5041740;28;20128;-67
2022/12/03 03:34:11;;;;;;;9.98;5.90;;;;;;;-0.29;44.71;95683.03;5040163;28;20455;-66
2022/12/03 03:36:36;;;;;;;9.20;5.82;;;;;;;-0.11;44.52;95680.88;5040107;28;20117;-66
2022/12/03 03:39:03;;;;;;;8.27;5.68;;;;;;;-0.08;44.14;95675.44;5040128;28;20144;-67
2022/12/03 03:41:28;;;;;;;18.13;11.65;;;;;;;-0.12;44.89;95679.22;5024564;28;20598;-68
2022/12/03 03:43:54;;;;;;;8.52;5.72;;;;;;;-0.05;44.56;95675.22;5041001;28;20100;-67
2022/12/03 03:46:19;;;;;;;10.25;7.43;;;;;;;0.14;44.22;95676.53;5041405;28;20085;-66
2022/12/03 03:48:44;;;;;;;13.80;6.88;;;;;;;-0.11;44.69;95660.78;5036351;28;20115;-67
2022/12/03 03:51:10;;;;;;;15.77;9.55;;;;;;;-0.42;46.62;95662.97;5039504;28;20109;-66
2022/12/03 03:53:37;;;;;;;16.63;9.88;;;;;;;-0.01;44.79;95665.34;5041554;28;20108;-66
2022/12/03 03:56:02;;;;;;;10.93;6.68;;;;;;;0.17;44.25;95664.03;5039053;28;20159;-66
2022/12/03 03:58:28;;;;;;;11.02;6.85;;;;;;;0.13;43.87;95662.59;5039325;28;20495;-67
2022/12/03 04:00:53;;;;;;;10.02;6.63;;;;;;;0.13;44.50;95654.72;5022171;28;20088;-65
2022/12/03 04:03:18;;;;;;;9.20;6.00;;;;;;;-0.10;44.23;95661.66;5039144;28;20473;-65
2022/12/03 04:05:45;;;;;;;34.28;22.50;;;;;;;-0.44;55.78;95668.31;5037996;28;20150;-67
2022/12/03 04:08:11;;;;;;;10.35;6.18;;;;;;;-0.07;48.52;95666.63;5040856;28;20391;-67
2022/12/03 04:13:20;;;;;;;10.63;6.45;;;;;;;0.21;44.42;95659.44;5041665;28;20523;-65
2022/12/03 04:15:46;;;;;;;14.23;7.70;;;;;;;0.21;43.78;95662.84;5040339;28;20117;-67
2022/12/03 04:22:38;;;;;;;9.35;6.28;;;;;;;-0.03;44.31;95660.22;5039665;28;20101;-67
2022/12/03 04:23:40;;;;;;;11.93;8.00;;;;;;;-0.25;47.26;95664.41;5038928;28;20111;-66
2022/12/03 04:28:49;;;;;;;15.23;9.32;;;;;;;-0.28;45.10;95662.00;5040467;28;20182;-68
2022/12/03 04:36:42;;;;;;;11.48;7.68;;;;;;;-0.02;44.16;95667.16;5040460;28;20224;-66
2022/12/03 04:39:08;;;;;;;11.65;8.07;;;;;;;-0.05;44.57;95657.75;5040443;28;20486;-67
2022/12/03 04:41:33;;;;;;;12.57;7.47;;;;;;;0.10;44.27;95661.97;5040506;28;20534;-66
2022/12/03 04:46:43;;;;;;;7.57;5.30;;;;;;;-0.02;44.35;95667.16;5039537;28;20604;-66
2022/12/03 04:49:08;;;;;;;10.30;6.35;;;;;;;0.01;44.70;95669.56;5040873;28;20054;-66
2022/12/03 04:51:34;;;;;;;7.75;5.25;;;;;;;0.18;43.94;95670.13;5039806;28;20105;-67
2022/12/03 04:53:59;;;;;;;11.60;7.93;;;;;;;0.19;44.02;95674.41;5038571;28;20081;-67
2022/12/03 04:56:24;;;;;;;9.68;5.65;;;;;;;0.21;44.31;95681.19;5039388;28;20511;-67
2022/12/03 04:58:50;;;;;;;8.73;5.90;;;;;;;0.28;43.83;95678.94;5038688;28;20620;-66
2022/12/03 05:01:15;;;;;;;9.30;5.53;;;;;;;0.37;43.61;95684.50;5038406;28;20081;-66
2022/12/03 05:03:41;;;;;;;7.88;5.20;;;;;;;0.50;43.38;95682.63;5039998;28;20097;-67
2022/12/03 05:06:06;;;;;;;10.18;6.68;;;;;;;0.42;43.60;95683.22;5040289;28;20085;-67
2022/12/03 05:08:32;;;;;;;9.80;5.07;;;;;;;0.12;43.73;95674.00;5037682;28;20178;-68
2022/12/03 05:10:57;;;;;;;7.95;4.90;;;;;;;0.13;43.91;95673.06;5039398;28;20165;-66
2022/12/03 05:13:22;;;;;;;8.00;5.50;;;;;;;0.14;43.76;95671.28;5040055;28;20120;-66
2022/12/03 05:15:48;;;;;;;8.73;5.55;;;;;;;0.22;43.78;95671.56;5039928;28;20159;-67
2022/12/03 05:18:13;;;;;;;7.95;5.40;;;;;;;0.37;43.79;95664.34;5040786;28;20080;-66
2022/12/03 05:20:41;;;;;;;10.27;5.68;;;;;;;0.25;43.78;95660.88;5039503;28;20120;-67
2022/12/03 05:23:10;;;;;;;9.40;5.32;;;;;;;0.26;43.26;95653.81;5037899;28;20136;-67
2022/12/03 05:25:36;;;;;;;16.85;8.85;;;;;;;0.24;43.39;95667.03;5037744;28;20603;-67
2022/12/03 05:28:01;;;;;;;18.52;8.65;;;;;;;0.03;45.00;95656.34;5040200;28;20176;-67
2022/12/03 05:30:27;;;;;;;9.27;5.60;;;;;;;-0.04;43.81;95661.19;5039214;28;20433;-67
2022/12/03 05:32:52;;;;;;;9.02;5.78;;;;;;;-0.05;44.22;95649.03;5040121;28;20120;-66
2022/12/03 05:35:18;;;;;;;12.82;7.25;;;;;;;-0.03;44.62;95648.94;5038992;28;20560;-67
2022/12/03 05:37:43;;;;;;;9.63;6.13;;;;;;;0.09;43.97;95648.03;5039445;28;20074;-67
2022/12/03 05:40:09;;;;;;;10.27;6.80;;;;;;;0.00;44.24;95641.69;5040086;28;20136;-65
2022/12/03 05:42:53;;;;;;;10.73;6.90;;;;;;;0.11;43.72;95640.94;5039484;28;20360;-67
2022/12/03 05:45:37;;;;;;;12.00;7.93;;;;;;;0.08;44.61;95634.09;5040597;28;20536;-65
2022/12/03 05:48:04;;;;;;;8.80;6.18;;;;;;;0.15;43.78;95639.75;5039202;28;20154;-67
2022/12/03 05:50:31;;;;;;;9.60;5.85;;;;;;;0.27;43.82;95637.19;5040343;28;20301;-67
2022/12/03 05:52:56;;;;;;;9.50;6.53;;;;;;;0.05;44.25;95633.50;5038476;28;20177;-66
2022/12/03 05:55:22;;;;;;;12.77;8.10;;;;;;;-0.01;44.56;95633.94;5038380;28;20653;-67
2022/12/03 05:57:47;;;;;;;12.65;7.82;;;;;;;-0.10;45.48;95643.31;5039731;28;20081;-66
2022/12/03 06:00:18;;;;;;;10.52;6.72;;;;;;;-0.10;46.09;95638.09;5039480;28;20140;-68
2022/12/03 06:02:43;;;;;;;9.50;6.10;;;;;;;0.14;44.22;95638.06;5038970;28;20080;-65
2022/12/03 06:05:09;;;;;;;11.27;6.78;;;;;;;0.28;44.34;95636.22;5040390;28;20477;-67
2022/12/03 06:07:35;;;;;;;9.68;5.97;;;;;;;0.34;43.95;95644.47;5039623;28;20469;-66
2022/12/03 06:10:00;;;;;;;9.25;6.30;;;;;;;0.30;44.32;95645.63;5038061;28;20176;-66
2022/12/03 06:12:26;;;;;;;9.88;6.55;;;;;;;0.27;43.67;95637.19;5039925;28;20116;-67
2022/12/03 06:14:53;;;;;;;12.23;7.38;;;;;;;0.11;45.80;95635.69;5039125;28;20100;-66
2022/12/03 06:17:19;;;;;;;11.80;7.25;;;;;;;0.25;45.20;95642.53;5040249;28;20089;-67
2022/12/03 06:19:44;;;;;;;13.80;8.07;;;;;;;0.38;45.33;95634.59;5041127;28;20113;-67
2022/12/03 06:22:09;;;;;;;13.95;8.63;;;;;;;0.37;46.10;95635.53;5040168;28;20081;-66
2022/12/03 06:24:35;;;;;;;11.93;7.90;;;;;;;0.38;44.42;95631.97;5042910;28;20098;-67
2022/12/03 06:27:00;;;;;;;12.02;7.00;;;;;;;0.24;43.78;95638.22;5042237;28;20582;-66
2022/12/03 06:29:26;;;;;;;13.15;7.50;;;;;;;0.20;43.83;95640.25;5043871;28;20092;-67
2022/12/03 06:31:51;;;;;;;12.23;7.10;;;;;;;0.01;44.26;95626.81;5040233;28;20094;-66
2022/12/03 06:34:16;;;;;;;10.60;7.53;;;;;;;0.25;43.69;95639.91;5040738;28;20077;-66
2022/12/03 06:36:42;;;;;;;10.23;6.85;;;;;;;0.38;43.35;95634.59;5042464;28;20125;-66
2022/12/03 06:39:07;;;;;;;10.15;6.80;;;;;;;0.29;43.44;95636.13;5042652;28;20105;-65
2022/12/03 06:41:33;;;;;;;11.52;7.00;;;;;;;0.30;43.66;95637.78;5042680;28;20085;-67
2022/12/03 06:43:58;;;;;;;11.02;7.25;;;;;;;-0.11;45.62;95639.00;5043035;28;20792;-66
2022/12/03 06:46:24;;;;;;;11.75;7.80;;;;;;;0.06;44.04;95637.78;5042653;28;20168;-67
2022/12/03 06:48:49;;;;;;;11.98;7.40;;;;;;;0.12;43.91;95639.13;5042343;28;20109;-66
2022/12/03 06:51:15;;;;;;;11.57;7.93;;;;;;;0.12;44.13;95641.75;5041996;28;20608;-67
2022/12/03 06:53:40;;;;;;;11.10;7.25;;;;;;;0.10;43.75;95648.91;5043191;28;20109;-65
2022/12/03 06:56:06;;;;;;;12.95;7.88;;;;;;;0.18;44.26;95647.38;5042270;28;20171;-65
2022/12/03 06:58:31;;;;;;;11.68;7.13;;;;;;;-0.32;45.01;95648.31;5039902;28;20746;-66
2022/12/03 07:00:56;;;;;;;12.18;7.72;;;;;;;-0.25;44.66;95645.22;5042428;28;20131;-65
2022/12/03 07:03:22;;;;;;;10.80;7.20;;;;;;;-0.28;44.60;95641.06;5042995;28;20097;-67
2022/12/03 07:05:47;;;;;;;12.35;7.70;;;;;;;-0.21;44.48;95642.31;5041999;28;20423;-67
2022/12/03 07:08:13;;;;;;;12.25;7.75;;;;;;;-0.48;45.44;95642.47;5042240;28;20109;-67
2022/12/03 07:10:38;;;;;;;12.20;7.68;;;;;;;-0.50;45.10;95645.22;5041582;28;20563;-66
2022/12/03 07:13:03;;;;;;;11.82;7.88;;;;;;;-0.35;45.49;95640.66;5041546;28;20090;-65
2022/12/03 07:15:29;;;;;;;14.15;8.27;;;;;;;-0.31;47.01;95638.66;5042281;28;20131;-68
2022/12/03 07:17:54;;;;;;;14.15;7.80;;;;;;;-0.49;45.41;95639.03;5042032;28;20553;-67
2022/12/03 07:20:19;;;;;;;12.90;8.02;;;;;;;-0.33;45.65;95638.75;5042021;28;20124;-68
2022/12/03 07:22:45;;;;;;;13.13;8.10;;;;;;;-0.18;44.74;95631.63;5040929;28;20085;-66
2022/12/03 07:25:11;;;;;;;11.95;7.75;;;;;;;-0.14;45.23;95639.25;5041599;28;20506;-66
2022/12/03 07:27:37;;;;;;;14.63;8.07;;;;;;;-0.31;45.42;95639.50;5040197;28;20492;-67
2022/12/03 07:30:03;;;;;;;13.30;8.15;;;;;;;-0.07;44.87;95628.22;5040029;28;20495;-65
2022/12/03 07:32:28;;;;;;;12.80;8.45;;;;;;;-0.22;45.21;95634.56;5041527;28;20105;-66
2022/12/03 07:34:54;;;;;;;12.48;8.15;;;;;;;0.10;45.02;95622.72;5041717;28;20171;-66
2022/12/03 07:37:19;;;;;;;11.52;7.57;;;;;;;0.09;44.72;95624.47;5041897;28;20096;-67
2022/12/03 07:39:44;;;;;;;13.65;8.63;;;;;;;-0.23;45.04;95625.03;5040680;28;20109;-65
2022/12/03 07:42:10;;;;;;;13.35;8.60;;;;;;;-0.01;44.70;95636.56;5041975;28;20501;-67
2022/12/03 07:44:35;;;;;;;12.02;8.30;;;;;;;0.24;44.70;95630.38;5041296;28;20308;-66
2022/12/03 07:47:01;;;;;;;12.73;8.27;;;;;;;0.37;44.40;95627.69;5041889;28;20102;-66
2022/12/03 07:49:26;;;;;;;12.80;8.35;;;;;;;0.28;44.60;95623.94;5041544;28;20112;-66
2022/12/03 07:51:55;;;;;;;14.95;8.82;;;;;;;0.41;43.86;95636.16;5042064;28;20124;-67
2022/12/03 07:54:21;;;;;;;14.25;8.55;;;;;;;0.48;43.69;95632.13;5039154;28;20086;-67
2022/12/03 07:56:49;;;;;;;14.55;9.25;;;;;;;0.14;43.97;95632.81;5040597;28;20163;-65
2022/12/03 07:59:18;;;;;;;13.57;8.90;;;;;;;0.28;44.04;95633.63;5037775;28;20158;-67
2022/12/03 08:01:44;;;;;;;13.98;8.43;;;;;;;0.54;43.98;95641.31;5039034;28;20081;-67
2022/12/03 08:04:11;;;;;;;11.90;7.75;;;;;;;0.64;44.02;95642.28;5036861;28;20104;-66
2022/12/03 08:06:37;;;;;;;15.00;9.10;;;;;;;0.34;44.33;95644.47;5037165;28;20172;-67
2022/12/03 08:09:02;;;;;;;12.48;8.30;;;;;;;0.53;44.00;95642.25;5041010;28;20158;-66
2022/12/03 08:11:28;;;;;;;13.98;9.02;;;;;;;0.24;44.32;95647.88;5039999;28;20136;-67
2022/12/03 08:13:53;;;;;;;13.65;8.77;;;;;;;0.40;44.53;95653.66;5039353;28;20789;-65
2022/12/03 08:16:20;;;;;;;13.77;8.70;;;;;;;0.48;43.68;95645.22;5040289;28;20101;-66
2022/12/03 08:18:46;;;;;;;13.93;9.20;;;;;;;0.36;44.21;95651.38;5040594;28;20132;-67
2022/12/03 08:21:16;;;;;;;15.57;10.23;;;;;;;0.23;44.31;95649.66;5032060;28;20565;-67
2022/12/03 08:23:41;;;;;;;15.55;9.13;;;;;;;0.57;43.74;95639.31;5034608;28;20190;-65
2022/12/03 08:26:22;;;;;;;15.13;9.65;;;;;;;0.67;43.35;95642.06;5040774;28;20134;-67
2022/12/03 08:28:48;;;;;;;15.13;9.32;;;;;;;0.62;43.52;95641.59;5034213;28;20931;-66
2022/12/03 08:31:24;;;;;;;14.38;9.38;;;;;;;0.47;43.79;95647.03;5033738;28;20109;-65
2022/12/03 08:33:51;;;;;;;16.02;9.70;;;;;;;0.66;43.58;95647.44;5039969;28;20294;-67
2022/12/03 08:36:29;;;;;;;16.13;10.25;;;;;;;0.71;43.48;95645.28;5040342;28;20113;-67
2022/12/03 08:38:59;;;;;;;15.68;9.23;;;;;;;0.92;43.15;95645.44;5039280;28;20109;-67
2022/12/03 08:44:23;;;;;;;18.15;10.27;;;;;;;0.76;43.66;95642.31;5039755;28;20124;-66
2022/12/03 08:46:52;;;;;;;15.68;9.98;;;;;;;0.98;43.05;95638.91;5039094;28;20087;-67
2022/12/03 08:49:18;;;;;;;18.67;11.75;;;;;;;0.64;46.60;95638.81;5040387;28;20069;-66
2022/12/03 08:51:43;;;;;;;18.10;11.40;;;;;;;0.80;44.65;95647.22;5021923;28;20121;-66
2022/12/03 08:54:13;;;;;;;18.73;12.07;;;;;;;0.53;44.14;95644.88;5038643;28;20431;-68
2022/12/03 08:56:38;;;;;;;16.33;10.73;;;;;;;0.84;43.87;95643.44;5036496;28;20115;-67
2022/12/03 08:59:24;;;;;;;17.38;11.00;;;;;;;0.97;43.45;95638.09;5017884;28;20106;-66
2022/12/03 09:01:50;;;;;;;17.40;10.90;;;;;;;1.07;43.60;95632.97;5033199;28;20088;-67
2022/12/03 09:04:38;;;;;;;16.88;11.18;;;;;;;1.06;42.97;95640.94;5036523;28;20355;-68
2022/12/03 09:07:03;;;;;;;17.00;11.43;;;;;;;1.23;43.29;95637.03;5034831;28;20105;-67
2022/12/03 09:09:29;;;;;;;19.83;13.10;;;;;;;1.14;44.19;95641.19;5038682;28;20423;-67
2022/12/03 09:11:54;;;;;;;18.05;11.23;;;;;;;1.17;42.87;95648.00;5037435;28;20167;-66
2022/12/03 09:14:21;;;;;;;17.17;10.88;;;;;;;1.30;42.57;95640.00;5039069;28;20188;-67
2022/12/03 09:16:54;;;;;;;17.25;10.82;;;;;;;1.53;42.42;95646.09;5029780;28;20127;-67
2022/12/03 09:19:19;;;;;;;18.58;11.50;;;;;;;1.31;42.27;95647.75;5035635;28;20105;-66
2022/12/03 09:21:44;;;;;;;24.88;16.73;;;;;;;1.40;43.72;95648.00;5033965;28;20087;-66
2022/12/03 09:24:10;;;;;;;17.38;11.13;;;;;;;1.43;42.37;95656.44;5037087;28;20486;-66
2022/12/03 09:26:35;;;;;;;21.08;12.07;;;;;;;1.45;42.06;95651.94;5038856;28;20084;-66
2022/12/03 09:29:01;;;;;;;18.33;11.68;;;;;;;1.53;42.58;95656.59;5035721;28;20111;-67
2022/12/03 09:31:26;;;;;;;22.15;12.75;;;;;;;1.65;41.69;95654.81;5036716;28;20105;-66
2022/12/03 09:33:52;;;;;;;22.60;13.98;;;;;;;1.65;42.23;95651.34;5037217;28;20170;-67
2022/12/03 09:36:17;;;;;;;19.80;12.05;;;;;;;1.75;42.08;95642.63;5037978;28;20113;-66
2022/12/03 09:38:43;;;;;;;18.08;11.38;;;;;;;1.85;41.39;95645.38;5039598;28;20089;-68
2022/12/03 09:41:08;;;;;;;20.95;13.60;;;;;;;1.65;41.97;95643.47;5037248;28;20070;-67
2022/12/03 09:43:34;;;;;;;23.25;14.23;;;;;;;1.73;42.00;95638.44;5039894;28;20685;-67
2022/12/03 09:45:59;;;;;;;20.13;11.98;;;;;;;1.86;41.84;95641.78;5035073;28;20140;-68
2022/12/03 09:48:24;;;;;;;22.33;13.07;;;;;;;1.79;41.73;95640.59;5037562;28;20101;-67
2022/12/03 09:50:50;;;;;;;22.05;12.95;;;;;;;1.81;41.24;95636.03;5037228;28;20082;-67
2022/12/03 09:53:20;;;;;;;19.95;12.40;;;;;;;1.82;41.94;95624.59;5036568;28;20111;-66
2022/12/03 09:55:45;;;;;;;22.13;12.32;;;;;;;1.84;41.99;95634.97;5038919;28;20129;-65
2022/12/03 09:58:12;;;;;;;20.88;12.80;;;;;;;1.87;41.04;95625.06;5041852;28;20183;-68
2022/12/03 10:00:37;;;;;;;23.17;14.43;;;;;;;1.92;41.83;95629.94;5042456;28;20165;-67
2022/12/03 10:03:03;;;;;;;21.15;12.57;;;;;;;1.74;41.44;95624.38;5039560;28;20102;-66
2022/12/03 10:05:29;;;;;;;22.23;13.27;;;;;;;1.82;41.63;95623.75;5044170;28;20093;-67
2022/12/03 10:07:55;;;;;;;22.67;14.38;;;;;;;1.98;41.58;95624.19;5043614;28;20151;-66
2022/12/03 10:10:22;;;;;;;22.95;14.23;;;;;;;1.66;41.54;95627.59;5042023;28;20074;-67
2022/12/03 10:12:48;;;;;;;20.75;12.55;;;;;;;1.90;41.87;95625.78;5041872;28;20544;-67
2022/12/03 10:15:15;;;;;;;29.38;18.42;;;;;;;1.77;42.10;95625.91;5048437;28;20109;-67
2022/12/03 10:17:41;;;;;;;20.17;12.80;;;;;;;1.85;41.96;95623.50;5041509;28;20079;-67
2022/12/03 10:20:08;;;;;;;27.88;17.33;;;;;;;1.79;41.91;95621.38;5041602;28;20105;-66
2022/12/03 10:22:36;;;;;;;20.73;13.68;;;;;;;1.78;41.78;95620.56;5019877;28;20091;-67
2022/12/03 10:25:12;;;;;;;24.90;15.07;;;;;;;1.80;41.66;95616.00;5043911;28;20081;-67
2022/12/03 10:27:38;;;;;;;23.85;14.40;;;;;;;1.83;41.58;95613.13;5038523;28;20141;-67
2022/12/03 10:30:12;;;;;;;23.20;13.48;;;;;;;1.71;41.76;95614.94;5040713;28;20073;-66
2022/12/03 10:32:40;;;;;;;21.48;12.55;;;;;;;1.88;41.84;95615.41;5042904;28;20451;-67
2022/12/03 10:35:22;;;;;;;27.98;15.15;;;;;;;1.78;41.65;95612.69;5039077;28;20589;-66
2022/12/03 10:38:00;;;;;;;25.25;14.73;;;;;;;1.80;41.89;95608.13;5042071;28;20089;-67
2022/12/03 10:40:32;;;;;;;24.42;13.48;;;;;;;1.78;41.73;95602.19;5039947;28;20613;-68
2022/12/03 10:43:25;;;;;;;24.08;13.70;;;;;;;1.57;42.13;95605.53;5040218;28;20124;-67
2022/12/03 10:46:09;;;;;;;28.55;17.20;;;;;;;1.59;41.89;95600.16;5039234;28;20077;-66
2022/12/03 10:48:34;;;;;;;24.70;14.25;;;;;;;1.54;42.34;95592.69;5039534;28;20573;-67
2022/12/03 10:51:02;;;;;;;27.38;15.38;;;;;;;1.47;42.55;95594.09;5041449;28;20116;-67
2022/12/03 10:53:29;;;;;;;23.38;13.30;;;;;;;1.67;42.73;95584.63;5037093;28;20307;-65
2022/12/03 10:55:58;;;;;;;26.33;14.52;;;;;;;1.83;41.94;95586.03;5042700;28;20120;-67
2022/12/03 10:58:44;;;;;;;22.70;12.65;;;;;;;1.79;42.23;95580.22;5040834;28;20386;-66
2022/12/03 11:01:24;;;;;;;21.77;12.85;;;;;;;1.88;41.87;95576.81;5028364;28;20191;-66
2022/12/03 11:03:49;;;;;;;26.63;16.70;;;;;;;1.83;42.42;95572.91;5038638;28;20116;-66
2022/12/03 11:06:16;;;;;;;24.30;14.20;;;;;;;1.79;42.21;95571.50;5038137;28;20072;-67
2022/12/03 11:08:43;;;;;;;21.00;12.57;;;;;;;1.67;42.73;95565.44;5036472;28;20201;-67
2022/12/03 11:11:22;;;;;;;22.95;12.95;;;;;;;1.72;42.03;95566.75;5041599;28;20128;-67
2022/12/03 11:13:52;;;;;;;20.05;12.50;;;;;;;1.73;42.10;95560.53;5022001;28;20101;-67
2022/12/03 11:16:39;;;;;;;20.23;12.15;;;;;;;1.74;42.16;95553.50;5038406;28;20109;-67
2022/12/03 11:19:46;;;;;;;17.35;11.05;;;;;;;1.84;42.02;95557.03;5042141;28;20383;-66
2022/12/03 11:22:11;;;;;;;21.17;12.20;;;;;;;1.75;42.09;95556.00;5016580;28;20107;-66
2022/12/03 11:24:38;;;;;;;20.30;12.60;;;;;;;1.83;42.39;95557.16;5017977;28;20213;-67
2022/12/03 11:27:05;;;;;;;21.08;11.65;;;;;;;1.94;41.83;95540.53;5026764;28;20116;-67
2022/12/03 11:29:47;;;;;;;19.98;12.63;;;;;;;2.03;42.07;95542.41;5041881;28;20167;-68
2022/12/03 11:32:38;;;;;;;18.92;11.82;;;;;;;1.91;42.06;95540.78;5040299;28;20102;-66
2022/12/03 11:35:09;;;;;;;23.67;15.02;;;;;;;1.79;41.81;95540.81;5038473;28;20124;-66
2022/12/03 11:37:35;;;;;;;23.27;11.80;;;;;;;1.85;42.12;95536.88;5039230;28;20438;-66
2022/12/03 11:40:15;;;;;;;24.30;14.15;;;;;;;1.91;42.08;95532.91;5039263;28;20112;-66
2022/12/03 11:42:41;;;;;;;17.08;10.57;;;;;;;1.88;41.75;95529.56;5038666;28;20081;-67
2022/12/03 11:45:09;;;;;;;17.63;11.05;;;;;;;1.94;41.53;95535.28;5036821;28;20080;-66
2022/12/03 11:48:02;;;;;;;20.27;10.88;;;;;;;2.05;41.60;95521.28;5040584;28;20113;-66
2022/12/03 11:50:32;;;;;;;21.80;14.32;;;;;;;1.99;41.21;95530.47;5036751;28;20093;-67
2022/12/03 11:53:09;;;;;;;21.13;11.85;;;;;;;1.87;42.21;95533.16;5039598;28;20573;-67
2022/12/03 11:55:40;;;;;;;19.15;11.45;;;;;;;1.98;41.49;95520.94;5000378;28;20106;-66